sensor_id;sensor_type;location;lat;lon;timestamp;P1;durP1;ratioP1;P2;durP2;ratioP2
8486;SDS011;4280;50.534;8.708;2024-03-07T00:01:35;62.53;;;28.40;;
8486;SDS011;4280;50.534;8.708;2024-03-07T00:04:02;61.57;;;29.70;;
8486;SDS011;4280;50.534;8.708;2024-03-07T00:06:28;55.43;;;27.60;;
8486;SDS011;4280;50.534;8.708;2024-03-07T00:08:53;62.10;;;28.87;;
8486;SDS011;4280;50.534;8.708;2024-03-07T00:11:20;48.23;;;25.87;;
8486;SDS011;4280;50.534;8.708;2024-03-07T00:13:45;53.13;;;25.53;;
8486;SDS011;4280;50.534;8.708;2024-03-07T00:16:11;56.27;;;26.53;;
8486;SDS011;4280;50.534;8.708;2024-03-07T00:18:38;51.93;;;25.20;;
8486;SDS011;4280;50.534;8.708;2024-03-07T00:21:03;50.80;;;26.50;;
8486;SDS011;4280;50.534;8.708;2024-03-07T00:23:29;43.95;;;23.25;;
8486;SDS011;4280;50.534;8.708;2024-03-07T00:25:56;45.60;;;23.07;;
8486;SDS011;4280;50.534;8.708;2024-03-07T00:28:22;48.47;;;23.90;;
8486;SDS011;4280;50.534;8.708;2024-03-07T00:30:48;45.17;;;23.97;;
8486;SDS011;4280;50.534;8.708;2024-03-07T00:33:14;62.73;;;21.87;;
8486;SDS011;4280;50.534;8.708;2024-03-07T00:35:40;56.17;;;23.53;;
8486;SDS011;4280;50.534;8.708;2024-03-07T00:38:05;43.80;;;23.40;;
8486;SDS011;4280;50.534;8.708;2024-03-07T00:40:32;48.80;;;22.50;;
8486;SDS011;4280;50.534;8.708;2024-03-07T00:42:58;46.43;;;23.37;;
8486;SDS011;4280;50.534;8.708;2024-03-07T00:45:25;40.63;;;21.37;;
8486;SDS011;4280;50.534;8.708;2024-03-07T00:47:50;41.77;;;21.70;;
8486;SDS011;4280;50.534;8.708;2024-03-07T00:50:16;51.73;;;20.53;;
8486;SDS011;4280;50.534;8.708;2024-03-07T00:52:42;44.00;;;20.60;;
8486;SDS011;4280;50.534;8.708;2024-03-07T00:55:07;43.60;;;22.90;;
8486;SDS011;4280;50.534;8.708;2024-03-07T00:57:33;43.30;;;20.03;;
8486;SDS011;4280;50.534;8.708;2024-03-07T00:59:59;46.27;;;20.50;;
8486;SDS011;4280;50.534;8.708;2024-03-07T01:02:25;39.60;;;20.13;;
8486;SDS011;4280;50.534;8.708;2024-03-07T01:04:51;43.30;;;20.63;;
8486;SDS011;4280;50.534;8.708;2024-03-07T01:07:19;43.03;;;19.37;;
8486;SDS011;4280;50.534;8.708;2024-03-07T01:09:46;34.53;;;17.00;;
8486;SDS011;4280;50.534;8.708;2024-03-07T01:12:12;35.90;;;19.90;;
8486;SDS011;4280;50.534;8.708;2024-03-07T01:14:38;40.10;;;19.33;;
8486;SDS011;4280;50.534;8.708;2024-03-07T01:17:04;40.13;;;20.20;;
8486;SDS011;4280;50.534;8.708;2024-03-07T01:19:32;40.70;;;18.20;;
8486;SDS011;4280;50.534;8.708;2024-03-07T01:21:58;48.80;;;20.73;;
8486;SDS011;4280;50.534;8.708;2024-03-07T01:24:24;34.83;;;19.20;;
8486;SDS011;4280;50.534;8.708;2024-03-07T01:26:50;40.17;;;20.63;;
8486;SDS011;4280;50.534;8.708;2024-03-07T01:29:16;41.40;;;19.30;;
8486;SDS011;4280;50.534;8.708;2024-03-07T01:31:42;44.30;;;20.90;;
8486;SDS011;4280;50.534;8.708;2024-03-07T01:34:08;38.90;;;19.93;;
8486;SDS011;4280;50.534;8.708;2024-03-07T01:36:34;40.60;;;19.77;;
8486;SDS011;4280;50.534;8.708;2024-03-07T01:39:00;36.07;;;19.90;;
8486;SDS011;4280;50.534;8.708;2024-03-07T01:41:28;37.77;;;20.00;;
8486;SDS011;4280;50.534;8.708;2024-03-07T01:43:54;37.90;;;19.87;;
8486;SDS011;4280;50.534;8.708;2024-03-07T01:46:19;47.70;;;22.73;;
8486;SDS011;4280;50.534;8.708;2024-03-07T01:48:45;40.37;;;21.17;;
8486;SDS011;4280;50.534;8.708;2024-03-07T01:51:13;34.07;;;19.07;;
8486;SDS011;4280;50.534;8.708;2024-03-07T01:53:39;43.63;;;20.20;;
8486;SDS011;4280;50.534;8.708;2024-03-07T01:56:04;38.80;;;20.33;;
8486;SDS011;4280;50.534;8.708;2024-03-07T01:58:31;51.93;;;19.80;;
8486;SDS011;4280;50.534;8.708;2024-03-07T02:00:57;34.70;;;19.40;;
8486;SDS011;4280;50.534;8.708;2024-03-07T02:03:24;51.93;;;23.47;;
8486;SDS011;4280;50.534;8.708;2024-03-07T02:05:50;39.03;;;19.93;;
8486;SDS011;4280;50.534;8.708;2024-03-07T02:08:16;39.57;;;21.00;;
8486;SDS011;4280;50.534;8.708;2024-03-07T02:10:42;41.60;;;20.73;;
8486;SDS011;4280;50.534;8.708;2024-03-07T02:13:08;41.00;;;21.37;;
8486;SDS011;4280;50.534;8.708;2024-03-07T02:15:33;42.73;;;20.83;;
8486;SDS011;4280;50.534;8.708;2024-03-07T02:17:59;39.90;;;20.37;;
8486;SDS011;4280;50.534;8.708;2024-03-07T02:20:25;40.33;;;21.03;;
8486;SDS011;4280;50.534;8.708;2024-03-07T02:22:52;40.10;;;20.40;;
8486;SDS011;4280;50.534;8.708;2024-03-07T02:25:19;37.63;;;20.17;;
8486;SDS011;4280;50.534;8.708;2024-03-07T02:27:45;42.00;;;21.27;;
8486;SDS011;4280;50.534;8.708;2024-03-07T02:30:11;39.47;;;20.93;;
8486;SDS011;4280;50.534;8.708;2024-03-07T02:32:37;43.67;;;21.43;;
8486;SDS011;4280;50.534;8.708;2024-03-07T02:35:04;38.67;;;20.60;;
8486;SDS011;4280;50.534;8.708;2024-03-07T02:37:31;42.10;;;22.07;;
8486;SDS011;4280;50.534;8.708;2024-03-07T02:39:56;45.03;;;21.07;;
8486;SDS011;4280;50.534;8.708;2024-03-07T02:42:22;43.40;;;21.30;;
8486;SDS011;4280;50.534;8.708;2024-03-07T02:44:48;43.20;;;22.73;;
8486;SDS011;4280;50.534;8.708;2024-03-07T02:47:14;44.77;;;23.33;;
8486;SDS011;4280;50.534;8.708;2024-03-07T02:49:40;39.00;;;20.83;;
8486;SDS011;4280;50.534;8.708;2024-03-07T02:52:05;39.40;;;21.40;;
8486;SDS011;4280;50.534;8.708;2024-03-07T02:54:33;39.07;;;21.13;;
8486;SDS011;4280;50.534;8.708;2024-03-07T02:56:59;35.43;;;21.00;;
8486;SDS011;4280;50.534;8.708;2024-03-07T02:59:25;38.43;;;20.40;;
8486;SDS011;4280;50.534;8.708;2024-03-07T03:01:51;37.23;;;20.73;;
8486;SDS011;4280;50.534;8.708;2024-03-07T03:04:17;37.83;;;21.70;;
8486;SDS011;4280;50.534;8.708;2024-03-07T03:06:43;43.13;;;22.10;;
8486;SDS011;4280;50.534;8.708;2024-03-07T03:09:09;43.53;;;21.80;;
8486;SDS011;4280;50.534;8.708;2024-03-07T03:11:42;34.47;;;20.50;;
8486;SDS011;4280;50.534;8.708;2024-03-07T03:14:09;39.30;;;22.43;;
8486;SDS011;4280;50.534;8.708;2024-03-07T03:16:35;44.63;;;22.60;;
8486;SDS011;4280;50.534;8.708;2024-03-07T03:19:01;47.77;;;23.60;;
8486;SDS011;4280;50.534;8.708;2024-03-07T03:21:27;39.67;;;22.00;;
8486;SDS011;4280;50.534;8.708;2024-03-07T03:23:52;51.03;;;21.20;;
8486;SDS011;4280;50.534;8.708;2024-03-07T03:26:19;39.10;;;21.30;;
8486;SDS011;4280;50.534;8.708;2024-03-07T03:28:46;42.13;;;22.37;;
8486;SDS011;4280;50.534;8.708;2024-03-07T03:31:12;46.13;;;22.77;;
8486;SDS011;4280;50.534;8.708;2024-03-07T03:33:39;52.63;;;21.17;;
8486;SDS011;4280;50.534;8.708;2024-03-07T03:36:05;43.07;;;23.80;;
8486;SDS011;4280;50.534;8.708;2024-03-07T03:38:32;50.80;;;25.20;;
8486;SDS011;4280;50.534;8.708;2024-03-07T03:40:58;47.37;;;22.90;;
8486;SDS011;4280;50.534;8.708;2024-03-07T03:43:23;46.83;;;23.80;;
8486;SDS011;4280;50.534;8.708;2024-03-07T03:45:49;50.27;;;24.43;;
8486;SDS011;4280;50.534;8.708;2024-03-07T03:48:15;52.67;;;23.30;;
8486;SDS011;4280;50.534;8.708;2024-03-07T03:50:40;43.33;;;23.07;;
8486;SDS011;4280;50.534;8.708;2024-03-07T03:53:06;49.37;;;23.80;;
8486;SDS011;4280;50.534;8.708;2024-03-07T03:55:33;50.30;;;23.40;;
8486;SDS011;4280;50.534;8.708;2024-03-07T03:57:59;52.70;;;24.37;;
8486;SDS011;4280;50.534;8.708;2024-03-07T04:00:25;45.00;;;22.77;;
8486;SDS011;4280;50.534;8.708;2024-03-07T04:02:50;48.83;;;23.37;;
8486;SDS011;4280;50.534;8.708;2024-03-07T04:05:17;46.60;;;23.80;;
8486;SDS011;4280;50.534;8.708;2024-03-07T04:07:45;48.23;;;23.97;;
8486;SDS011;4280;50.534;8.708;2024-03-07T04:10:11;43.60;;;24.13;;
8486;SDS011;4280;50.534;8.708;2024-03-07T04:12:40;49.07;;;24.40;;
8486;SDS011;4280;50.534;8.708;2024-03-07T04:15:13;43.80;;;22.67;;
8486;SDS011;4280;50.534;8.708;2024-03-07T04:17:43;45.60;;;23.40;;
8486;SDS011;4280;50.534;8.708;2024-03-07T04:20:11;45.00;;;22.63;;
8486;SDS011;4280;50.534;8.708;2024-03-07T04:22:38;56.27;;;23.80;;
8486;SDS011;4280;50.534;8.708;2024-03-07T04:25:04;48.83;;;23.20;;
8486;SDS011;4280;50.534;8.708;2024-03-07T04:27:33;53.77;;;23.77;;
8486;SDS011;4280;50.534;8.708;2024-03-07T04:30:08;41.70;;;21.07;;
8486;SDS011;4280;50.534;8.708;2024-03-07T04:32:37;49.80;;;23.50;;
8486;SDS011;4280;50.534;8.708;2024-03-07T04:35:04;44.70;;;24.27;;
8486;SDS011;4280;50.534;8.708;2024-03-07T04:37:32;50.13;;;24.90;;
8486;SDS011;4280;50.534;8.708;2024-03-07T04:40:03;46.40;;;23.83;;
8486;SDS011;4280;50.534;8.708;2024-03-07T04:42:39;48.90;;;24.07;;
8486;SDS011;4280;50.534;8.708;2024-03-07T04:45:18;45.37;;;23.93;;
8486;SDS011;4280;50.534;8.708;2024-03-07T04:47:47;48.23;;;25.00;;
8486;SDS011;4280;50.534;8.708;2024-03-07T04:50:14;51.27;;;24.10;;
8486;SDS011;4280;50.534;8.708;2024-03-07T04:52:42;49.23;;;25.17;;
8486;SDS011;4280;50.534;8.708;2024-03-07T04:55:09;53.10;;;27.20;;
8486;SDS011;4280;50.534;8.708;2024-03-07T04:57:38;53.40;;;25.17;;
8486;SDS011;4280;50.534;8.708;2024-03-07T05:00:06;68.47;;;28.30;;
8486;SDS011;4280;50.534;8.708;2024-03-07T05:02:39;49.37;;;24.40;;
8486;SDS011;4280;50.534;8.708;2024-03-07T05:05:08;53.50;;;26.83;;
8486;SDS011;4280;50.534;8.708;2024-03-07T05:07:34;54.10;;;27.50;;
8486;SDS011;4280;50.534;8.708;2024-03-07T05:10:01;56.10;;;26.47;;
8486;SDS011;4280;50.534;8.708;2024-03-07T05:12:31;62.30;;;31.03;;
8486;SDS011;4280;50.534;8.708;2024-03-07T05:14:58;61.40;;;29.97;;
8486;SDS011;4280;50.534;8.708;2024-03-07T05:17:23;63.07;;;29.03;;
8486;SDS011;4280;50.534;8.708;2024-03-07T05:19:49;59.73;;;28.00;;
8486;SDS011;4280;50.534;8.708;2024-03-07T05:22:15;57.50;;;26.83;;
8486;SDS011;4280;50.534;8.708;2024-03-07T05:24:45;55.43;;;25.03;;
8486;SDS011;4280;50.534;8.708;2024-03-07T05:27:15;54.80;;;25.97;;
8486;SDS011;4280;50.534;8.708;2024-03-07T05:29:41;54.03;;;26.30;;
8486;SDS011;4280;50.534;8.708;2024-03-07T05:32:26;58.03;;;25.50;;
8486;SDS011;4280;50.534;8.708;2024-03-07T05:34:52;52.57;;;24.87;;
8486;SDS011;4280;50.534;8.708;2024-03-07T05:37:20;55.63;;;26.90;;
8486;SDS011;4280;50.534;8.708;2024-03-07T05:39:50;62.00;;;25.80;;
8486;SDS011;4280;50.534;8.708;2024-03-07T05:42:17;44.80;;;22.77;;
8486;SDS011;4280;50.534;8.708;2024-03-07T05:44:43;53.57;;;25.70;;
8486;SDS011;4280;50.534;8.708;2024-03-07T05:47:09;56.30;;;25.60;;
8486;SDS011;4280;50.534;8.708;2024-03-07T05:49:38;45.00;;;23.43;;
8486;SDS011;4280;50.534;8.708;2024-03-07T05:52:04;45.20;;;24.87;;
8486;SDS011;4280;50.534;8.708;2024-03-07T05:54:33;51.20;;;24.83;;
8486;SDS011;4280;50.534;8.708;2024-03-07T05:57:00;44.53;;;23.73;;
8486;SDS011;4280;50.534;8.708;2024-03-07T05:59:26;45.87;;;24.57;;
8486;SDS011;4280;50.534;8.708;2024-03-07T06:01:56;42.43;;;22.23;;
8486;SDS011;4280;50.534;8.708;2024-03-07T06:04:22;49.70;;;22.70;;
8486;SDS011;4280;50.534;8.708;2024-03-07T06:06:48;45.60;;;22.73;;
8486;SDS011;4280;50.534;8.708;2024-03-07T06:09:14;43.90;;;22.40;;
8486;SDS011;4280;50.534;8.708;2024-03-07T06:11:46;50.43;;;23.70;;
8486;SDS011;4280;50.534;8.708;2024-03-07T06:14:12;46.30;;;23.37;;
8486;SDS011;4280;50.534;8.708;2024-03-07T06:16:39;49.43;;;23.77;;
8486;SDS011;4280;50.534;8.708;2024-03-07T06:19:06;38.57;;;21.67;;
8486;SDS011;4280;50.534;8.708;2024-03-07T06:21:33;46.57;;;22.33;;
8486;SDS011;4280;50.534;8.708;2024-03-07T06:24:01;46.00;;;22.73;;
8486;SDS011;4280;50.534;8.708;2024-03-07T06:26:29;44.80;;;22.80;;
8486;SDS011;4280;50.534;8.708;2024-03-07T06:29:17;51.93;;;22.73;;
8486;SDS011;4280;50.534;8.708;2024-03-07T06:31:43;50.30;;;23.77;;
8486;SDS011;4280;50.534;8.708;2024-03-07T06:34:13;44.53;;;22.23;;
8486;SDS011;4280;50.534;8.708;2024-03-07T06:36:39;50.23;;;25.60;;
8486;SDS011;4280;50.534;8.708;2024-03-07T06:39:05;51.47;;;23.67;;
8486;SDS011;4280;50.534;8.708;2024-03-07T06:41:35;45.33;;;21.87;;
8486;SDS011;4280;50.534;8.708;2024-03-07T06:44:02;42.80;;;21.30;;
8486;SDS011;4280;50.534;8.708;2024-03-07T06:46:28;49.70;;;22.50;;
8486;SDS011;4280;50.534;8.708;2024-03-07T06:48:54;47.33;;;21.30;;
8486;SDS011;4280;50.534;8.708;2024-03-07T06:51:21;44.50;;;22.83;;
8486;SDS011;4280;50.534;8.708;2024-03-07T06:53:47;47.07;;;21.83;;
8486;SDS011;4280;50.534;8.708;2024-03-07T06:56:13;48.70;;;21.50;;
8486;SDS011;4280;50.534;8.708;2024-03-07T06:58:41;47.30;;;22.37;;
8486;SDS011;4280;50.534;8.708;2024-03-07T07:01:07;48.20;;;20.70;;
8486;SDS011;4280;50.534;8.708;2024-03-07T07:03:36;44.67;;;22.97;;
8486;SDS011;4280;50.534;8.708;2024-03-07T07:06:02;42.33;;;21.00;;
8486;SDS011;4280;50.534;8.708;2024-03-07T07:08:30;43.77;;;20.57;;
8486;SDS011;4280;50.534;8.708;2024-03-07T07:10:57;42.27;;;21.20;;
8486;SDS011;4280;50.534;8.708;2024-03-07T07:13:23;41.87;;;21.60;;
8486;SDS011;4280;50.534;8.708;2024-03-07T07:15:49;45.77;;;21.73;;
8486;SDS011;4280;50.534;8.708;2024-03-07T07:18:15;42.73;;;20.17;;
8486;SDS011;4280;50.534;8.708;2024-03-07T07:20:41;46.37;;;22.43;;
8486;SDS011;4280;50.534;8.708;2024-03-07T07:23:07;47.13;;;21.30;;
8486;SDS011;4280;50.534;8.708;2024-03-07T07:25:33;39.90;;;20.43;;
8486;SDS011;4280;50.534;8.708;2024-03-07T07:27:59;47.03;;;20.97;;
8486;SDS011;4280;50.534;8.708;2024-03-07T07:30:25;46.90;;;22.13;;
8486;SDS011;4280;50.534;8.708;2024-03-07T07:32:54;45.10;;;21.60;;
8486;SDS011;4280;50.534;8.708;2024-03-07T07:35:20;36.80;;;19.87;;
8486;SDS011;4280;50.534;8.708;2024-03-07T07:37:46;42.27;;;21.83;;
8486;SDS011;4280;50.534;8.708;2024-03-07T07:40:15;50.53;;;21.23;;
8486;SDS011;4280;50.534;8.708;2024-03-07T07:42:47;41.60;;;21.33;;
8486;SDS011;4280;50.534;8.708;2024-03-07T07:45:16;49.97;;;21.67;;
8486;SDS011;4280;50.534;8.708;2024-03-07T07:47:44;38.43;;;20.03;;
8486;SDS011;4280;50.534;8.708;2024-03-07T07:50:14;47.47;;;17.87;;
8486;SDS011;4280;50.534;8.708;2024-03-07T07:52:45;43.63;;;19.73;;
8486;SDS011;4280;50.534;8.708;2024-03-07T07:55:19;51.33;;;21.27;;
8486;SDS011;4280;50.534;8.708;2024-03-07T07:57:48;50.93;;;21.70;;
8486;SDS011;4280;50.534;8.708;2024-03-07T08:00:29;46.97;;;21.17;;
8486;SDS011;4280;50.534;8.708;2024-03-07T08:05:23;46.73;;;21.57;;
8486;SDS011;4280;50.534;8.708;2024-03-07T08:07:51;45.80;;;22.27;;
8486;SDS011;4280;50.534;8.708;2024-03-07T08:10:25;41.77;;;21.13;;
8486;SDS011;4280;50.534;8.708;2024-03-07T08:12:55;45.83;;;21.60;;
8486;SDS011;4280;50.534;8.708;2024-03-07T08:15:29;48.07;;;22.70;;
8486;SDS011;4280;50.534;8.708;2024-03-07T08:17:56;44.13;;;21.57;;
8486;SDS011;4280;50.534;8.708;2024-03-07T08:20:23;53.17;;;22.60;;
8486;SDS011;4280;50.534;8.708;2024-03-07T08:22:51;51.50;;;23.70;;
8486;SDS011;4280;50.534;8.708;2024-03-07T08:25:30;45.67;;;22.60;;
8486;SDS011;4280;50.534;8.708;2024-03-07T08:27:56;45.33;;;21.87;;
8486;SDS011;4280;50.534;8.708;2024-03-07T08:30:23;46.47;;;22.50;;
8486;SDS011;4280;50.534;8.708;2024-03-07T08:32:50;45.10;;;21.77;;
8486;SDS011;4280;50.534;8.708;2024-03-07T08:35:18;43.40;;;21.90;;
8486;SDS011;4280;50.534;8.708;2024-03-07T08:37:45;46.10;;;21.30;;
8486;SDS011;4280;50.534;8.708;2024-03-07T08:40:18;56.83;;;23.77;;
8486;SDS011;4280;50.534;8.708;2024-03-07T08:42:46;41.70;;;21.30;;
8486;SDS011;4280;50.534;8.708;2024-03-07T08:45:16;50.07;;;21.80;;
8486;SDS011;4280;50.534;8.708;2024-03-07T08:47:43;45.37;;;20.47;;
8486;SDS011;4280;50.534;8.708;2024-03-07T08:50:14;46.83;;;22.27;;
8486;SDS011;4280;50.534;8.708;2024-03-07T08:52:43;41.90;;;21.67;;
8486;SDS011;4280;50.534;8.708;2024-03-07T08:55:11;42.60;;;21.17;;
8486;SDS011;4280;50.534;8.708;2024-03-07T08:57:39;44.63;;;21.07;;
8486;SDS011;4280;50.534;8.708;2024-03-07T09:00:06;43.60;;;20.97;;
8486;SDS011;4280;50.534;8.708;2024-03-07T09:02:34;46.47;;;22.23;;
8486;SDS011;4280;50.534;8.708;2024-03-07T09:05:01;44.67;;;19.63;;
8486;SDS011;4280;50.534;8.708;2024-03-07T09:07:27;47.57;;;21.77;;
8486;SDS011;4280;50.534;8.708;2024-03-07T09:09:54;46.60;;;20.53;;
8486;SDS011;4280;50.534;8.708;2024-03-07T09:12:20;44.20;;;21.93;;
8486;SDS011;4280;50.534;8.708;2024-03-07T09:14:46;46.60;;;21.63;;
8486;SDS011;4280;50.534;8.708;2024-03-07T09:17:12;48.40;;;22.50;;
8486;SDS011;4280;50.534;8.708;2024-03-07T09:19:38;44.00;;;22.17;;
8486;SDS011;4280;50.534;8.708;2024-03-07T09:22:03;52.73;;;21.77;;
8486;SDS011;4280;50.534;8.708;2024-03-07T09:24:30;49.13;;;23.17;;
8486;SDS011;4280;50.534;8.708;2024-03-07T09:26:56;46.60;;;21.67;;
8486;SDS011;4280;50.534;8.708;2024-03-07T09:29:22;50.10;;;21.47;;
8486;SDS011;4280;50.534;8.708;2024-03-07T09:31:51;49.03;;;21.97;;
8486;SDS011;4280;50.534;8.708;2024-03-07T09:34:18;36.63;;;18.97;;
8486;SDS011;4280;50.534;8.708;2024-03-07T09:36:45;40.90;;;20.80;;
8486;SDS011;4280;50.534;8.708;2024-03-07T09:39:12;47.70;;;21.80;;
8486;SDS011;4280;50.534;8.708;2024-03-07T09:41:38;42.70;;;21.57;;
8486;SDS011;4280;50.534;8.708;2024-03-07T09:44:12;47.57;;;23.17;;
8486;SDS011;4280;50.534;8.708;2024-03-07T09:46:47;49.37;;;22.30;;
8486;SDS011;4280;50.534;8.708;2024-03-07T09:49:15;52.03;;;21.87;;
8486;SDS011;4280;50.534;8.708;2024-03-07T09:51:41;41.70;;;20.57;;
8486;SDS011;4280;50.534;8.708;2024-03-07T09:54:09;42.87;;;21.17;;
8486;SDS011;4280;50.534;8.708;2024-03-07T09:56:35;44.10;;;19.90;;
8486;SDS011;4280;50.534;8.708;2024-03-07T09:59:02;46.00;;;21.97;;
8486;SDS011;4280;50.534;8.708;2024-03-07T10:01:30;52.03;;;23.03;;
8486;SDS011;4280;50.534;8.708;2024-03-07T10:03:59;45.97;;;22.43;;
8486;SDS011;4280;50.534;8.708;2024-03-07T10:06:35;45.00;;;21.40;;
8486;SDS011;4280;50.534;8.708;2024-03-07T10:09:01;44.63;;;20.70;;
8486;SDS011;4280;50.534;8.708;2024-03-07T10:11:28;54.63;;;21.97;;
8486;SDS011;4280;50.534;8.708;2024-03-07T10:13:54;43.90;;;22.03;;
8486;SDS011;4280;50.534;8.708;2024-03-07T10:16:20;44.57;;;20.03;;
8486;SDS011;4280;50.534;8.708;2024-03-07T10:18:46;46.87;;;20.13;;
8486;SDS011;4280;50.534;8.708;2024-03-07T10:21:15;42.87;;;20.80;;
8486;SDS011;4280;50.534;8.708;2024-03-07T10:23:49;47.23;;;21.80;;
8486;SDS011;4280;50.534;8.708;2024-03-07T10:26:18;48.17;;;22.27;;
8486;SDS011;4280;50.534;8.708;2024-03-07T10:28:43;36.93;;;18.97;;
8486;SDS011;4280;50.534;8.708;2024-03-07T10:31:09;39.30;;;19.37;;
8486;SDS011;4280;50.534;8.708;2024-03-07T10:33:37;44.10;;;20.10;;
8486;SDS011;4280;50.534;8.708;2024-03-07T10:36:05;44.80;;;20.67;;
8486;SDS011;4280;50.534;8.708;2024-03-07T10:38:35;41.27;;;20.00;;
8486;SDS011;4280;50.534;8.708;2024-03-07T10:41:02;51.40;;;19.80;;
8486;SDS011;4280;50.534;8.708;2024-03-07T10:43:30;41.80;;;19.90;;
8486;SDS011;4280;50.534;8.708;2024-03-07T10:46:04;37.07;;;19.37;;
8486;SDS011;4280;50.534;8.708;2024-03-07T10:48:34;48.97;;;16.20;;
8486;SDS011;4280;50.534;8.708;2024-03-07T10:53:59;24.80;;;12.23;;
8486;SDS011;4280;50.534;8.708;2024-03-07T10:57:08;25.90;;;13.23;;
8486;SDS011;4280;50.534;8.708;2024-03-07T10:59:57;34.30;;;15.03;;
8486;SDS011;4280;50.534;8.708;2024-03-07T11:02:47;26.67;;;13.30;;
8486;SDS011;4280;50.534;8.708;2024-03-07T11:05:18;25.10;;;14.30;;
8486;SDS011;4280;50.534;8.708;2024-03-07T11:07:44;27.07;;;13.50;;
8486;SDS011;4280;50.534;8.708;2024-03-07T11:10:10;24.80;;;13.50;;
8486;SDS011;4280;50.534;8.708;2024-03-07T11:12:42;25.43;;;13.10;;
8486;SDS011;4280;50.534;8.708;2024-03-07T11:15:11;25.83;;;13.50;;
8486;SDS011;4280;50.534;8.708;2024-03-07T11:17:49;27.30;;;13.37;;
8486;SDS011;4280;50.534;8.708;2024-03-07T11:22:49;27.03;;;13.17;;
8486;SDS011;4280;50.534;8.708;2024-03-07T11:25:19;22.17;;;12.33;;
8486;SDS011;4280;50.534;8.708;2024-03-07T11:27:58;19.57;;;10.77;;
8486;SDS011;4280;50.534;8.708;2024-03-07T11:30:26;24.90;;;10.63;;
8486;SDS011;4280;50.534;8.708;2024-03-07T11:32:52;18.73;;;9.90;;
8486;SDS011;4280;50.534;8.708;2024-03-07T11:35:40;16.40;;;10.23;;
8486;SDS011;4280;50.534;8.708;2024-03-07T11:38:13;20.83;;;10.90;;
8486;SDS011;4280;50.534;8.708;2024-03-07T11:43:05;13.47;;;8.40;;
8486;SDS011;4280;50.534;8.708;2024-03-07T11:45:31;14.20;;;8.70;;
8486;SDS011;4280;50.534;8.708;2024-03-07T11:48:09;16.97;;;8.80;;
8486;SDS011;4280;50.534;8.708;2024-03-07T11:50:36;18.60;;;11.00;;
8486;SDS011;4280;50.534;8.708;2024-03-07T11:53:07;19.37;;;10.27;;
8486;SDS011;4280;50.534;8.708;2024-03-07T11:55:34;17.30;;;9.70;;
8486;SDS011;4280;50.534;8.708;2024-03-07T11:58:12;17.20;;;9.57;;
8486;SDS011;4280;50.534;8.708;2024-03-07T12:00:40;15.90;;;7.93;;
8486;SDS011;4280;50.534;8.708;2024-03-07T12:03:12;16.40;;;9.07;;
8486;SDS011;4280;50.534;8.708;2024-03-07T12:05:45;18.50;;;9.77;;
8486;SDS011;4280;50.534;8.708;2024-03-07T12:08:17;18.57;;;10.00;;
8486;SDS011;4280;50.534;8.708;2024-03-07T12:10:44;19.70;;;10.70;;
8486;SDS011;4280;50.534;8.708;2024-03-07T12:13:10;21.57;;;9.07;;
8486;SDS011;4280;50.534;8.708;2024-03-07T12:15:37;14.07;;;7.93;;
8486;SDS011;4280;50.534;8.708;2024-03-07T12:18:04;13.40;;;8.20;;
8486;SDS011;4280;50.534;8.708;2024-03-07T12:20:40;20.63;;;9.43;;
8486;SDS011;4280;50.534;8.708;2024-03-07T12:23:11;17.30;;;9.80;;
8486;SDS011;4280;50.534;8.708;2024-03-07T12:25:38;16.97;;;10.10;;
8486;SDS011;4280;50.534;8.708;2024-03-07T12:28:05;16.80;;;8.90;;
8486;SDS011;4280;50.534;8.708;2024-03-07T12:30:47;20.03;;;11.10;;
8486;SDS011;4280;50.534;8.708;2024-03-07T12:33:20;14.90;;;8.27;;
8486;SDS011;4280;50.534;8.708;2024-03-07T12:35:50;18.90;;;10.57;;
8486;SDS011;4280;50.534;8.708;2024-03-07T12:38:18;16.30;;;9.13;;
8486;SDS011;4280;50.534;8.708;2024-03-07T12:40:44;14.23;;;8.00;;
8486;SDS011;4280;50.534;8.708;2024-03-07T12:43:20;15.90;;;8.30;;
8486;SDS011;4280;50.534;8.708;2024-03-07T12:45:53;13.50;;;8.40;;
8486;SDS011;4280;50.534;8.708;2024-03-07T12:48:19;15.67;;;9.37;;
8486;SDS011;4280;50.534;8.708;2024-03-07T12:50:49;19.90;;;9.93;;
8486;SDS011;4280;50.534;8.708;2024-03-07T12:53:19;17.23;;;9.00;;
8486;SDS011;4280;50.534;8.708;2024-03-07T12:55:46;22.50;;;11.60;;
8486;SDS011;4280;50.534;8.708;2024-03-07T12:58:12;17.77;;;9.23;;
8486;SDS011;4280;50.534;8.708;2024-03-07T13:00:39;19.10;;;9.20;;
8486;SDS011;4280;50.534;8.708;2024-03-07T13:03:08;16.40;;;10.50;;
8486;SDS011;4280;50.534;8.708;2024-03-07T13:05:35;22.53;;;10.97;;
8486;SDS011;4280;50.534;8.708;2024-03-07T13:08:05;19.43;;;10.80;;
8486;SDS011;4280;50.534;8.708;2024-03-07T13:10:41;17.73;;;10.37;;
8486;SDS011;4280;50.534;8.708;2024-03-07T13:13:07;24.23;;;12.60;;
8486;SDS011;4280;50.534;8.708;2024-03-07T13:15:40;18.57;;;9.70;;
8486;SDS011;4280;50.534;8.708;2024-03-07T13:18:07;25.40;;;11.60;;
8486;SDS011;4280;50.534;8.708;2024-03-07T13:20:37;23.27;;;12.27;;
8486;SDS011;4280;50.534;8.708;2024-03-07T13:23:03;22.33;;;11.40;;
8486;SDS011;4280;50.534;8.708;2024-03-07T13:25:29;23.67;;;12.90;;
8486;SDS011;4280;50.534;8.708;2024-03-07T13:28:09;25.57;;;12.93;;
8486;SDS011;4280;50.534;8.708;2024-03-07T13:30:50;18.53;;;9.60;;
8486;SDS011;4280;50.534;8.708;2024-03-07T13:33:19;23.20;;;12.20;;
8486;SDS011;4280;50.534;8.708;2024-03-07T13:35:45;32.23;;;12.60;;
8486;SDS011;4280;50.534;8.708;2024-03-07T13:38:11;19.67;;;10.80;;
8486;SDS011;4280;50.534;8.708;2024-03-07T13:40:38;22.10;;;12.27;;
8486;SDS011;4280;50.534;8.708;2024-03-07T13:43:05;21.70;;;11.00;;
8486;SDS011;4280;50.534;8.708;2024-03-07T13:45:32;25.13;;;12.53;;
8486;SDS011;4280;50.534;8.708;2024-03-07T13:48:08;30.87;;;14.60;;
8486;SDS011;4280;50.534;8.708;2024-03-07T13:50:38;30.63;;;13.80;;
8486;SDS011;4280;50.534;8.708;2024-03-07T13:53:06;23.70;;;11.57;;
8486;SDS011;4280;50.534;8.708;2024-03-07T13:55:45;23.97;;;12.17;;
8486;SDS011;4280;50.534;8.708;2024-03-07T14:01:04;25.97;;;13.30;;
8486;SDS011;4280;50.534;8.708;2024-03-07T14:14:44;25.93;;;12.33;;
8486;SDS011;4280;50.534;8.708;2024-03-07T14:17:58;31.67;;;11.20;;
8486;SDS011;4280;50.534;8.708;2024-03-07T14:24:02;29.40;;;12.23;;
8486;SDS011;4280;50.534;8.708;2024-03-07T14:33:00;36.37;;;13.60;;
8486;SDS011;4280;50.534;8.708;2024-03-07T14:35:31;25.63;;;14.17;;
8486;SDS011;4280;50.534;8.708;2024-03-07T14:38:40;25.27;;;11.80;;
8486;SDS011;4280;50.534;8.708;2024-03-07T14:41:23;32.90;;;14.13;;
8486;SDS011;4280;50.534;8.708;2024-03-07T14:44:08;31.53;;;15.73;;
8486;SDS011;4280;50.534;8.708;2024-03-07T14:46:35;30.60;;;14.70;;
8486;SDS011;4280;50.534;8.708;2024-03-07T14:49:02;28.27;;;13.90;;
8486;SDS011;4280;50.534;8.708;2024-03-07T14:51:29;32.50;;;15.17;;
8486;SDS011;4280;50.534;8.708;2024-03-07T14:53:55;27.83;;;14.07;;
8486;SDS011;4280;50.534;8.708;2024-03-07T14:56:20;38.97;;;16.70;;
8486;SDS011;4280;50.534;8.708;2024-03-07T14:58:46;28.23;;;12.20;;
8486;SDS011;4280;50.534;8.708;2024-03-07T15:01:12;29.77;;;13.40;;
8486;SDS011;4280;50.534;8.708;2024-03-07T15:03:38;32.40;;;15.30;;
8486;SDS011;4280;50.534;8.708;2024-03-07T15:06:06;33.93;;;12.87;;
8486;SDS011;4280;50.534;8.708;2024-03-07T15:08:34;30.17;;;13.70;;
8486;SDS011;4280;50.534;8.708;2024-03-07T15:14:05;29.60;;;14.43;;
8486;SDS011;4280;50.534;8.708;2024-03-07T15:16:34;26.30;;;13.00;;
8486;SDS011;4280;50.534;8.708;2024-03-07T15:19:03;32.33;;;13.63;;
8486;SDS011;4280;50.534;8.708;2024-03-07T15:21:30;25.40;;;13.83;;
8486;SDS011;4280;50.534;8.708;2024-03-07T15:23:56;28.00;;;14.00;;
8486;SDS011;4280;50.534;8.708;2024-03-07T15:26:23;28.40;;;14.90;;
8486;SDS011;4280;50.534;8.708;2024-03-07T15:28:52;26.30;;;13.03;;
8486;SDS011;4280;50.534;8.708;2024-03-07T15:31:19;34.17;;;15.53;;
8486;SDS011;4280;50.534;8.708;2024-03-07T15:33:46;30.30;;;12.80;;